Weather at Leipzig/Halle Airport

Public forecast

Using degrees Celsius for public forecast. Weather courtesy of forecast.io.

Current aviation weather report (METAR) for Leipzig/Halle Airport

2024/06/16 21:20 (retrieved 17 minutes ago)

EDDP 162120Z AUTO 18005KT 160V220 CAVOK 18/12 Q1011 NOSIG

Aviation forecast (TAF) for Leipzig/Halle Airport

2024/06/16 18:27 (retrieved 3 hours ago)

TAF EDDP 161700Z 1618/1718 21008KT CAVOK PROB30 TEMPO 1714/1718 23015G25KT TSRA BKN040CB